sensor_id;sensor_type;location;lat;lon;timestamp;P1;durP1;ratioP1;P2;durP2;ratioP2
23952;SDS011;12163;49.316;6.092;2022-12-07T00:01:14;24.10;;;13.32;;
23952;SDS011;12163;49.316;6.092;2022-12-07T00:03:43;22.58;;;12.98;;
23952;SDS011;12163;49.316;6.092;2022-12-07T00:06:12;23.73;;;13.13;;
23952;SDS011;12163;49.316;6.092;2022-12-07T00:08:40;25.77;;;11.98;;
23952;SDS011;12163;49.316;6.092;2022-12-07T00:11:07;19.92;;;11.98;;
23952;SDS011;12163;49.316;6.092;2022-12-07T00:13:36;21.42;;;11.95;;
23952;SDS011;12163;49.316;6.092;2022-12-07T00:18:34;23.40;;;11.80;;
23952;SDS011;12163;49.316;6.092;2022-12-07T00:21:02;22.63;;;11.98;;
23952;SDS011;12163;49.316;6.092;2022-12-07T00:23:30;21.13;;;12.57;;
23952;SDS011;12163;49.316;6.092;2022-12-07T00:26:02;22.77;;;12.55;;
23952;SDS011;12163;49.316;6.092;2022-12-07T00:28:32;19.70;;;11.55;;
23952;SDS011;12163;49.316;6.092;2022-12-07T00:31:01;20.88;;;11.70;;
23952;SDS011;12163;49.316;6.092;2022-12-07T00:33:31;20.25;;;12.43;;
23952;SDS011;12163;49.316;6.092;2022-12-07T00:35:59;19.40;;;11.50;;
23952;SDS011;12163;49.316;6.092;2022-12-07T00:38:28;17.95;;;10.82;;
23952;SDS011;12163;49.316;6.092;2022-12-07T00:40:59;19.67;;;11.88;;
23952;SDS011;12163;49.316;6.092;2022-12-07T00:43:28;21.50;;;11.70;;
23952;SDS011;12163;49.316;6.092;2022-12-07T00:45:55;20.58;;;12.13;;
23952;SDS011;12163;49.316;6.092;2022-12-07T00:48:23;19.35;;;11.35;;
23952;SDS011;12163;49.316;6.092;2022-12-07T00:50:50;20.55;;;12.30;;
23952;SDS011;12163;49.316;6.092;2022-12-07T00:53:17;20.00;;;11.55;;
23952;SDS011;12163;49.316;6.092;2022-12-07T00:55:44;21.67;;;12.23;;
23952;SDS011;12163;49.316;6.092;2022-12-07T00:58:11;21.65;;;11.82;;
23952;SDS011;12163;49.316;6.092;2022-12-07T01:00:39;24.83;;;11.52;;
23952;SDS011;12163;49.316;6.092;2022-12-07T01:03:08;18.17;;;11.15;;
23952;SDS011;12163;49.316;6.092;2022-12-07T01:05:36;20.20;;;11.77;;
23952;SDS011;12163;49.316;6.092;2022-12-07T01:08:03;20.50;;;11.63;;
23952;SDS011;12163;49.316;6.092;2022-12-07T01:10:30;18.58;;;11.30;;
23952;SDS011;12163;49.316;6.092;2022-12-07T01:12:58;22.08;;;12.65;;
23952;SDS011;12163;49.316;6.092;2022-12-07T01:15:25;21.52;;;11.60;;
23952;SDS011;12163;49.316;6.092;2022-12-07T01:17:53;23.35;;;12.30;;
23952;SDS011;12163;49.316;6.092;2022-12-07T01:20:20;20.00;;;9.50;;
23952;SDS011;12163;49.316;6.092;2022-12-07T01:22:47;19.63;;;10.35;;
23952;SDS011;12163;49.316;6.092;2022-12-07T01:25:14;16.67;;;10.20;;
23952;SDS011;12163;49.316;6.092;2022-12-07T01:27:41;19.90;;;11.25;;
23952;SDS011;12163;49.316;6.092;2022-12-07T01:30:07;18.77;;;11.65;;
23952;SDS011;12163;49.316;6.092;2022-12-07T01:32:36;17.48;;;10.35;;
23952;SDS011;12163;49.316;6.092;2022-12-07T01:35:03;17.98;;;10.68;;
23952;SDS011;12163;49.316;6.092;2022-12-07T01:37:33;19.13;;;10.98;;
23952;SDS011;12163;49.316;6.092;2022-12-07T01:40:06;19.20;;;11.02;;
23952;SDS011;12163;49.316;6.092;2022-12-07T01:42:33;20.38;;;11.48;;
23952;SDS011;12163;49.316;6.092;2022-12-07T01:48:07;18.65;;;11.27;;
23952;SDS011;12163;49.316;6.092;2022-12-07T01:50:36;18.80;;;10.88;;
23952;SDS011;12163;49.316;6.092;2022-12-07T01:53:06;18.50;;;11.07;;
23952;SDS011;12163;49.316;6.092;2022-12-07T01:55:37;19.60;;;11.85;;
23952;SDS011;12163;49.316;6.092;2022-12-07T01:58:06;17.88;;;12.10;;
23952;SDS011;12163;49.316;6.092;2022-12-07T02:00:34;20.60;;;11.80;;
23952;SDS011;12163;49.316;6.092;2022-12-07T02:05:53;17.63;;;11.40;;
23952;SDS011;12163;49.316;6.092;2022-12-07T02:08:20;20.67;;;12.05;;
23952;SDS011;12163;49.316;6.092;2022-12-07T02:10:48;20.80;;;12.02;;
23952;SDS011;12163;49.316;6.092;2022-12-07T02:13:24;21.08;;;12.25;;
23952;SDS011;12163;49.316;6.092;2022-12-07T02:29:21;23.85;;;14.40;;
23952;SDS011;12163;49.316;6.092;2022-12-07T02:31:59;25.92;;;14.82;;
23952;SDS011;12163;49.316;6.092;2022-12-07T02:34:42;24.60;;;14.93;;
23952;SDS011;12163;49.316;6.092;2022-12-07T02:37:27;26.08;;;13.63;;
23952;SDS011;12163;49.316;6.092;2022-12-07T02:40:11;23.02;;;14.55;;
23952;SDS011;12163;49.316;6.092;2022-12-07T02:42:45;27.13;;;16.38;;
23952;SDS011;12163;49.316;6.092;2022-12-07T02:45:18;23.50;;;14.73;;
23952;SDS011;12163;49.316;6.092;2022-12-07T02:47:51;26.13;;;15.57;;
23952;SDS011;12163;49.316;6.092;2022-12-07T02:50:21;26.65;;;16.52;;
23952;SDS011;12163;49.316;6.092;2022-12-07T02:52:48;27.48;;;17.13;;
23952;SDS011;12163;49.316;6.092;2022-12-07T02:55:15;29.23;;;17.67;;
23952;SDS011;12163;49.316;6.092;2022-12-07T03:00:27;28.63;;;18.15;;
23952;SDS011;12163;49.316;6.092;2022-12-07T03:03:00;29.30;;;18.02;;
23952;SDS011;12163;49.316;6.092;2022-12-07T03:12:04;30.00;;;18.30;;
23952;SDS011;12163;49.316;6.092;2022-12-07T03:14:24;33.75;;;19.90;;
23952;SDS011;12163;49.316;6.092;2022-12-07T03:17:05;30.63;;;18.23;;
23952;SDS011;12163;49.316;6.092;2022-12-07T03:19:43;27.90;;;19.10;;
23952;SDS011;12163;49.316;6.092;2022-12-07T03:22:12;34.88;;;18.65;;
23952;SDS011;12163;49.316;6.092;2022-12-07T03:24:48;39.83;;;21.48;;
23952;SDS011;12163;49.316;6.092;2022-12-07T03:27:23;32.22;;;19.20;;
23952;SDS011;12163;49.316;6.092;2022-12-07T03:29:54;35.40;;;18.83;;
23952;SDS011;12163;49.316;6.092;2022-12-07T03:35:05;35.35;;;18.33;;
23952;SDS011;12163;49.316;6.092;2022-12-07T03:37:57;27.88;;;17.17;;
23952;SDS011;12163;49.316;6.092;2022-12-07T03:40:37;28.33;;;15.88;;
23952;SDS011;12163;49.316;6.092;2022-12-07T03:43:10;27.13;;;16.70;;
23952;SDS011;12163;49.316;6.092;2022-12-07T03:45:43;27.80;;;17.70;;
23952;SDS011;12163;49.316;6.092;2022-12-07T03:48:20;28.73;;;16.77;;
23952;SDS011;12163;49.316;6.092;2022-12-07T03:50:54;30.67;;;17.75;;
23952;SDS011;12163;49.316;6.092;2022-12-07T03:53:34;31.52;;;18.05;;
23952;SDS011;12163;49.316;6.092;2022-12-07T03:56:05;33.05;;;18.50;;
23952;SDS011;12163;49.316;6.092;2022-12-07T03:58:34;34.28;;;20.05;;
23952;SDS011;12163;49.316;6.092;2022-12-07T04:01:02;31.98;;;18.65;;
23952;SDS011;12163;49.316;6.092;2022-12-07T04:03:29;37.35;;;20.35;;
23952;SDS011;12163;49.316;6.092;2022-12-07T04:05:56;34.20;;;19.33;;
23952;SDS011;12163;49.316;6.092;2022-12-07T04:08:24;32.05;;;18.27;;
23952;SDS011;12163;49.316;6.092;2022-12-07T04:10:51;37.17;;;21.73;;
23952;SDS011;12163;49.316;6.092;2022-12-07T04:13:17;37.78;;;20.77;;
23952;SDS011;12163;49.316;6.092;2022-12-07T04:15:44;36.65;;;20.50;;
23952;SDS011;12163;49.316;6.092;2022-12-07T04:18:10;37.58;;;20.60;;
23952;SDS011;12163;49.316;6.092;2022-12-07T04:20:37;34.72;;;20.67;;
23952;SDS011;12163;49.316;6.092;2022-12-07T04:23:04;39.22;;;21.73;;
23952;SDS011;12163;49.316;6.092;2022-12-07T04:25:30;46.00;;;21.55;;
23952;SDS011;12163;49.316;6.092;2022-12-07T04:27:57;40.67;;;21.90;;
23952;SDS011;12163;49.316;6.092;2022-12-07T04:30:23;37.20;;;21.92;;
23952;SDS011;12163;49.316;6.092;2022-12-07T04:32:50;39.55;;;21.50;;
23952;SDS011;12163;49.316;6.092;2022-12-07T04:35:17;38.38;;;21.40;;
23952;SDS011;12163;49.316;6.092;2022-12-07T04:37:43;42.15;;;21.67;;
23952;SDS011;12163;49.316;6.092;2022-12-07T04:40:10;37.05;;;21.55;;
23952;SDS011;12163;49.316;6.092;2022-12-07T04:42:38;38.90;;;22.00;;
23952;SDS011;12163;49.316;6.092;2022-12-07T04:45:05;37.50;;;20.60;;
23952;SDS011;12163;49.316;6.092;2022-12-07T04:47:32;39.80;;;20.48;;
23952;SDS011;12163;49.316;6.092;2022-12-07T04:49:59;40.95;;;21.25;;
23952;SDS011;12163;49.316;6.092;2022-12-07T04:52:26;36.15;;;21.67;;
23952;SDS011;12163;49.316;6.092;2022-12-07T04:54:53;36.28;;;20.52;;
23952;SDS011;12163;49.316;6.092;2022-12-07T04:57:19;39.65;;;21.33;;
23952;SDS011;12163;49.316;6.092;2022-12-07T04:59:46;38.20;;;20.63;;
23952;SDS011;12163;49.316;6.092;2022-12-07T05:02:12;32.50;;;19.08;;
23952;SDS011;12163;49.316;6.092;2022-12-07T05:04:39;33.95;;;19.67;;
23952;SDS011;12163;49.316;6.092;2022-12-07T05:07:06;33.40;;;19.05;;
23952;SDS011;12163;49.316;6.092;2022-12-07T05:09:32;33.67;;;19.50;;
23952;SDS011;12163;49.316;6.092;2022-12-07T05:11:59;35.47;;;20.10;;
23952;SDS011;12163;49.316;6.092;2022-12-07T05:14:25;35.42;;;19.77;;
23952;SDS011;12163;49.316;6.092;2022-12-07T05:16:52;33.97;;;19.13;;
23952;SDS011;12163;49.316;6.092;2022-12-07T05:19:19;34.03;;;19.73;;
23952;SDS011;12163;49.316;6.092;2022-12-07T05:21:46;35.58;;;20.48;;
23952;SDS011;12163;49.316;6.092;2022-12-07T05:24:14;38.72;;;19.65;;
23952;SDS011;12163;49.316;6.092;2022-12-07T05:26:42;39.40;;;20.17;;
23952;SDS011;12163;49.316;6.092;2022-12-07T05:29:13;39.17;;;19.75;;
23952;SDS011;12163;49.316;6.092;2022-12-07T05:31:41;38.25;;;20.17;;
23952;SDS011;12163;49.316;6.092;2022-12-07T05:34:08;36.28;;;18.58;;
23952;SDS011;12163;49.316;6.092;2022-12-07T05:36:35;40.25;;;19.95;;
23952;SDS011;12163;49.316;6.092;2022-12-07T05:39:02;33.70;;;17.90;;
23952;SDS011;12163;49.316;6.092;2022-12-07T05:41:28;33.40;;;17.40;;
23952;SDS011;12163;49.316;6.092;2022-12-07T05:44:13;35.38;;;17.40;;
23952;SDS011;12163;49.316;6.092;2022-12-07T05:46:40;36.65;;;19.80;;
23952;SDS011;12163;49.316;6.092;2022-12-07T05:49:07;37.75;;;19.17;;
23952;SDS011;12163;49.316;6.092;2022-12-07T05:51:33;28.50;;;16.30;;
23952;SDS011;12163;49.316;6.092;2022-12-07T05:54:00;30.10;;;17.95;;
23952;SDS011;12163;49.316;6.092;2022-12-07T05:56:27;28.63;;;16.58;;
23952;SDS011;12163;49.316;6.092;2022-12-07T05:58:54;37.13;;;18.58;;
23952;SDS011;12163;49.316;6.092;2022-12-07T06:01:39;34.25;;;18.33;;
23952;SDS011;12163;49.316;6.092;2022-12-07T06:04:06;31.80;;;17.52;;
23952;SDS011;12163;49.316;6.092;2022-12-07T06:06:33;35.00;;;18.17;;
23952;SDS011;12163;49.316;6.092;2022-12-07T06:08:59;33.22;;;19.08;;
23952;SDS011;12163;49.316;6.092;2022-12-07T06:11:26;34.72;;;19.05;;
23952;SDS011;12163;49.316;6.092;2022-12-07T06:14:11;39.42;;;19.00;;
23952;SDS011;12163;49.316;6.092;2022-12-07T06:16:38;31.63;;;18.23;;
23952;SDS011;12163;49.316;6.092;2022-12-07T06:19:04;37.22;;;18.10;;
23952;SDS011;12163;49.316;6.092;2022-12-07T06:21:31;33.70;;;18.15;;
23952;SDS011;12163;49.316;6.092;2022-12-07T06:23:58;35.63;;;19.67;;
23952;SDS011;12163;49.316;6.092;2022-12-07T06:26:24;34.35;;;17.30;;
23952;SDS011;12163;49.316;6.092;2022-12-07T06:28:51;36.92;;;19.35;;
23952;SDS011;12163;49.316;6.092;2022-12-07T06:31:17;27.77;;;16.90;;
23952;SDS011;12163;49.316;6.092;2022-12-07T06:33:44;31.23;;;17.90;;
23952;SDS011;12163;49.316;6.092;2022-12-07T06:36:11;29.02;;;18.10;;
23952;SDS011;12163;49.316;6.092;2022-12-07T06:38:38;29.00;;;17.20;;
23952;SDS011;12163;49.316;6.092;2022-12-07T06:41:04;34.45;;;18.33;;
23952;SDS011;12163;49.316;6.092;2022-12-07T06:43:31;26.95;;;16.15;;
23952;SDS011;12163;49.316;6.092;2022-12-07T06:45:59;29.17;;;16.83;;
23952;SDS011;12163;49.316;6.092;2022-12-07T06:48:25;35.90;;;18.95;;
23952;SDS011;12163;49.316;6.092;2022-12-07T06:50:52;36.75;;;19.90;;
23952;SDS011;12163;49.316;6.092;2022-12-07T06:53:20;37.75;;;20.05;;
23952;SDS011;12163;49.316;6.092;2022-12-07T06:55:48;36.08;;;19.42;;
23952;SDS011;12163;49.316;6.092;2022-12-07T06:58:15;38.90;;;20.50;;
23952;SDS011;12163;49.316;6.092;2022-12-07T07:00:42;37.30;;;19.75;;
23952;SDS011;12163;49.316;6.092;2022-12-07T07:03:09;36.38;;;19.70;;
23952;SDS011;12163;49.316;6.092;2022-12-07T07:05:35;38.25;;;20.42;;
23952;SDS011;12163;49.316;6.092;2022-12-07T07:08:02;41.30;;;20.90;;
23952;SDS011;12163;49.316;6.092;2022-12-07T07:10:47;44.13;;;21.75;;
23952;SDS011;12163;49.316;6.092;2022-12-07T07:13:14;40.80;;;22.08;;
23952;SDS011;12163;49.316;6.092;2022-12-07T07:15:40;47.95;;;22.00;;
23952;SDS011;12163;49.316;6.092;2022-12-07T07:18:07;46.65;;;22.38;;
23952;SDS011;12163;49.316;6.092;2022-12-07T07:20:34;44.20;;;21.73;;
23952;SDS011;12163;49.316;6.092;2022-12-07T07:23:00;43.63;;;21.85;;
23952;SDS011;12163;49.316;6.092;2022-12-07T07:25:27;46.22;;;22.17;;
23952;SDS011;12163;49.316;6.092;2022-12-07T07:27:54;42.33;;;21.63;;
23952;SDS011;12163;49.316;6.092;2022-12-07T07:30:20;43.55;;;21.73;;
23952;SDS011;12163;49.316;6.092;2022-12-07T07:32:47;46.50;;;21.92;;
23952;SDS011;12163;49.316;6.092;2022-12-07T07:35:14;43.03;;;21.85;;
23952;SDS011;12163;49.316;6.092;2022-12-07T07:37:41;42.90;;;20.40;;
23952;SDS011;12163;49.316;6.092;2022-12-07T07:40:09;48.53;;;21.70;;
23952;SDS011;12163;49.316;6.092;2022-12-07T07:42:36;44.53;;;21.55;;
23952;SDS011;12163;49.316;6.092;2022-12-07T07:45:03;47.45;;;21.25;;
23952;SDS011;12163;49.316;6.092;2022-12-07T07:47:30;44.67;;;21.63;;
23952;SDS011;12163;49.316;6.092;2022-12-07T07:49:57;47.50;;;22.17;;
23952;SDS011;12163;49.316;6.092;2022-12-07T07:52:24;46.17;;;22.48;;
23952;SDS011;12163;49.316;6.092;2022-12-07T07:54:50;48.92;;;23.13;;
23952;SDS011;12163;49.316;6.092;2022-12-07T07:57:17;44.70;;;21.85;;
23952;SDS011;12163;49.316;6.092;2022-12-07T07:59:44;51.65;;;22.90;;
23952;SDS011;12163;49.316;6.092;2022-12-07T08:02:14;45.85;;;21.13;;
23952;SDS011;12163;49.316;6.092;2022-12-07T08:04:43;50.72;;;22.30;;
23952;SDS011;12163;49.316;6.092;2022-12-07T08:07:11;46.33;;;21.88;;
23952;SDS011;12163;49.316;6.092;2022-12-07T08:09:38;53.13;;;23.20;;
23952;SDS011;12163;49.316;6.092;2022-12-07T08:12:05;48.33;;;21.63;;
23952;SDS011;12163;49.316;6.092;2022-12-07T08:14:32;49.75;;;21.80;;
23952;SDS011;12163;49.316;6.092;2022-12-07T08:17:00;46.45;;;22.58;;
23952;SDS011;12163;49.316;6.092;2022-12-07T08:19:27;47.83;;;21.63;;
23952;SDS011;12163;49.316;6.092;2022-12-07T08:21:53;47.20;;;21.88;;
23952;SDS011;12163;49.316;6.092;2022-12-07T08:24:22;45.33;;;20.88;;
23952;SDS011;12163;49.316;6.092;2022-12-07T08:26:51;46.60;;;22.17;;
23952;SDS011;12163;49.316;6.092;2022-12-07T08:29:18;44.40;;;19.63;;
23952;SDS011;12163;49.316;6.092;2022-12-07T08:31:44;40.38;;;19.52;;
23952;SDS011;12163;49.316;6.092;2022-12-07T08:34:11;35.95;;;18.15;;
23952;SDS011;12163;49.316;6.092;2022-12-07T08:36:39;35.88;;;17.67;;
23952;SDS011;12163;49.316;6.092;2022-12-07T08:39:05;31.52;;;17.05;;
23952;SDS011;12163;49.316;6.092;2022-12-07T08:41:52;36.33;;;17.70;;
23952;SDS011;12163;49.316;6.092;2022-12-07T08:44:19;25.98;;;14.57;;
23952;SDS011;12163;49.316;6.092;2022-12-07T08:46:47;24.55;;;13.13;;
23952;SDS011;12163;49.316;6.092;2022-12-07T08:49:20;17.73;;;10.85;;
23952;SDS011;12163;49.316;6.092;2022-12-07T08:51:51;20.08;;;10.75;;
23952;SDS011;12163;49.316;6.092;2022-12-07T08:54:19;20.98;;;11.18;;
23952;SDS011;12163;49.316;6.092;2022-12-07T08:56:46;18.08;;;11.20;;
23952;SDS011;12163;49.316;6.092;2022-12-07T08:59:22;18.30;;;10.25;;
23952;SDS011;12163;49.316;6.092;2022-12-07T09:01:49;14.13;;;8.98;;
23952;SDS011;12163;49.316;6.092;2022-12-07T09:04:16;18.88;;;10.60;;
23952;SDS011;12163;49.316;6.092;2022-12-07T09:06:42;15.13;;;8.68;;
23952;SDS011;12163;49.316;6.092;2022-12-07T09:09:09;13.60;;;8.52;;
23952;SDS011;12163;49.316;6.092;2022-12-07T09:11:37;26.45;;;12.18;;
23952;SDS011;12163;49.316;6.092;2022-12-07T09:14:05;20.05;;;10.23;;
23952;SDS011;12163;49.316;6.092;2022-12-07T09:16:32;18.35;;;9.45;;
23952;SDS011;12163;49.316;6.092;2022-12-07T09:18:59;15.30;;;9.20;;
23952;SDS011;12163;49.316;6.092;2022-12-07T09:21:26;14.90;;;8.55;;
23952;SDS011;12163;49.316;6.092;2022-12-07T09:23:52;15.93;;;9.02;;
23952;SDS011;12163;49.316;6.092;2022-12-07T09:26:19;12.43;;;8.25;;
23952;SDS011;12163;49.316;6.092;2022-12-07T09:28:45;10.98;;;7.35;;
23952;SDS011;12163;49.316;6.092;2022-12-07T09:31:12;13.73;;;7.60;;
23952;SDS011;12163;49.316;6.092;2022-12-07T09:36:25;11.20;;;7.13;;
23952;SDS011;12163;49.316;6.092;2022-12-07T09:38:53;12.98;;;7.65;;
23952;SDS011;12163;49.316;6.092;2022-12-07T09:41:19;16.48;;;7.78;;
23952;SDS011;12163;49.316;6.092;2022-12-07T09:43:48;12.07;;;6.75;;
23952;SDS011;12163;49.316;6.092;2022-12-07T09:46:15;12.80;;;7.47;;
23952;SDS011;12163;49.316;6.092;2022-12-07T09:48:45;14.38;;;7.70;;
23952;SDS011;12163;49.316;6.092;2022-12-07T09:51:18;13.85;;;7.65;;
23952;SDS011;12163;49.316;6.092;2022-12-07T09:53:50;12.73;;;7.00;;
23952;SDS011;12163;49.316;6.092;2022-12-07T09:56:19;12.20;;;6.60;;
23952;SDS011;12163;49.316;6.092;2022-12-07T09:58:47;13.23;;;6.82;;
23952;SDS011;12163;49.316;6.092;2022-12-07T10:01:18;11.88;;;7.25;;
23952;SDS011;12163;49.316;6.092;2022-12-07T10:03:51;12.40;;;6.95;;
23952;SDS011;12163;49.316;6.092;2022-12-07T10:06:19;11.75;;;6.50;;
23952;SDS011;12163;49.316;6.092;2022-12-07T10:08:46;13.05;;;6.82;;
23952;SDS011;12163;49.316;6.092;2022-12-07T10:11:13;14.63;;;6.57;;
23952;SDS011;12163;49.316;6.092;2022-12-07T10:13:52;10.73;;;5.82;;
23952;SDS011;12163;49.316;6.092;2022-12-07T10:18:54;14.05;;;5.53;;
23952;SDS011;12163;49.316;6.092;2022-12-07T10:21:22;7.80;;;5.03;;
23952;SDS011;12163;49.316;6.092;2022-12-07T10:26:31;10.05;;;5.50;;
23952;SDS011;12163;49.316;6.092;2022-12-07T10:34:34;9.48;;;5.43;;
23952;SDS011;12163;49.316;6.092;2022-12-07T10:39:53;9.32;;;4.80;;
23952;SDS011;12163;49.316;6.092;2022-12-07T10:42:23;12.00;;;5.32;;
23952;SDS011;12163;49.316;6.092;2022-12-07T10:47:38;8.88;;;5.97;;
23952;SDS011;12163;49.316;6.092;2022-12-07T10:50:35;12.55;;;5.88;;
23952;SDS011;12163;49.316;6.092;2022-12-07T10:59:15;13.35;;;5.10;;
23952;SDS011;12163;49.316;6.092;2022-12-07T11:04:36;8.63;;;5.00;;
23952;SDS011;12163;49.316;6.092;2022-12-07T11:37:31;11.82;;;6.13;;
23952;SDS011;12163;49.316;6.092;2022-12-07T11:42:37;11.60;;;6.35;;
23952;SDS011;12163;49.316;6.092;2022-12-07T11:45:15;12.80;;;6.63;;
23952;SDS011;12163;49.316;6.092;2022-12-07T11:50:41;14.73;;;7.05;;
23952;SDS011;12163;49.316;6.092;2022-12-07T11:53:16;13.93;;;6.90;;
23952;SDS011;12163;49.316;6.092;2022-12-07T11:55:57;15.00;;;5.63;;
23952;SDS011;12163;49.316;6.092;2022-12-07T12:06:36;11.95;;;5.50;;
23952;SDS011;12163;49.316;6.092;2022-12-07T12:09:06;9.93;;;5.60;;
23952;SDS011;12163;49.316;6.092;2022-12-07T12:20:46;9.15;;;5.68;;
23952;SDS011;12163;49.316;6.092;2022-12-07T12:25:52;8.02;;;5.38;;
23952;SDS011;12163;49.316;6.092;2022-12-07T12:49:40;10.40;;;5.20;;
23952;SDS011;12163;49.316;6.092;2022-12-07T12:57:35;9.43;;;5.53;;
23952;SDS011;12163;49.316;6.092;2022-12-07T13:00:15;13.60;;;6.57;;
23952;SDS011;12163;49.316;6.092;2022-12-07T13:02:53;10.63;;;6.15;;
23952;SDS011;12163;49.316;6.092;2022-12-07T13:05:22;15.60;;;6.72;;
23952;SDS011;12163;49.316;6.092;2022-12-07T13:08:03;12.75;;;6.25;;
23952;SDS011;12163;49.316;6.092;2022-12-07T13:10:44;11.13;;;6.60;;
23952;SDS011;12163;49.316;6.092;2022-12-07T13:23:52;14.43;;;7.47;;
23952;SDS011;12163;49.316;6.092;2022-12-07T13:29:09;10.45;;;6.60;;
23952;SDS011;12163;49.316;6.092;2022-12-07T13:34:27;14.85;;;8.30;;
23952;SDS011;12163;49.316;6.092;2022-12-07T13:39:34;13.25;;;8.40;;
23952;SDS011;12163;49.316;6.092;2022-12-07T13:42:15;14.18;;;8.02;;
23952;SDS011;12163;49.316;6.092;2022-12-07T13:44:53;14.45;;;7.68;;
23952;SDS011;12163;49.316;6.092;2022-12-07T13:50:24;17.23;;;8.38;;
23952;SDS011;12163;49.316;6.092;2022-12-07T13:52:55;16.92;;;8.60;;
23952;SDS011;12163;49.316;6.092;2022-12-07T13:55:26;18.00;;;8.73;;
23952;SDS011;12163;49.316;6.092;2022-12-07T13:57:54;13.70;;;8.27;;
23952;SDS011;12163;49.316;6.092;2022-12-07T14:00:23;14.73;;;8.15;;
23952;SDS011;12163;49.316;6.092;2022-12-07T14:05:25;15.25;;;7.97;;
23952;SDS011;12163;49.316;6.092;2022-12-07T14:07:58;13.57;;;8.20;;
23952;SDS011;12163;49.316;6.092;2022-12-07T14:10:33;17.08;;;8.48;;
23952;SDS011;12163;49.316;6.092;2022-12-07T14:13:02;18.25;;;8.13;;
23952;SDS011;12163;49.316;6.092;2022-12-07T14:15:49;14.35;;;8.07;;
23952;SDS011;12163;49.316;6.092;2022-12-07T14:18:27;14.45;;;7.88;;
23952;SDS011;12163;49.316;6.092;2022-12-07T14:21:06;16.20;;;8.60;;
23952;SDS011;12163;49.316;6.092;2022-12-07T14:23:37;13.75;;;7.40;;
23952;SDS011;12163;49.316;6.092;2022-12-07T14:26:15;17.10;;;8.52;;
23952;SDS011;12163;49.316;6.092;2022-12-07T14:28:45;13.93;;;7.90;;
23952;SDS011;12163;49.316;6.092;2022-12-07T14:31:17;17.60;;;8.73;;
23952;SDS011;12163;49.316;6.092;2022-12-07T14:33:58;18.17;;;8.38;;
23952;SDS011;12163;49.316;6.092;2022-12-07T14:36:25;15.82;;;8.35;;
23952;SDS011;12163;49.316;6.092;2022-12-07T14:38:52;17.20;;;7.78;;
23952;SDS011;12163;49.316;6.092;2022-12-07T14:41:22;21.15;;;8.63;;
23952;SDS011;12163;49.316;6.092;2022-12-07T14:44:11;14.50;;;7.93;;
23952;SDS011;12163;49.316;6.092;2022-12-07T14:46:58;14.82;;;7.75;;
23952;SDS011;12163;49.316;6.092;2022-12-07T14:49:45;19.67;;;8.98;;
23952;SDS011;12163;49.316;6.092;2022-12-07T14:52:16;21.50;;;8.98;;
23952;SDS011;12163;49.316;6.092;2022-12-07T14:55:13;15.43;;;8.38;;
23952;SDS011;12163;49.316;6.092;2022-12-07T14:57:46;15.05;;;8.52;;
23952;SDS011;12163;49.316;6.092;2022-12-07T15:00:13;15.50;;;8.70;;
23952;SDS011;12163;49.316;6.092;2022-12-07T15:02:41;14.95;;;8.07;;
23952;SDS011;12163;49.316;6.092;2022-12-07T15:05:08;20.10;;;9.30;;
23952;SDS011;12163;49.316;6.092;2022-12-07T15:07:42;18.40;;;9.20;;
23952;SDS011;12163;49.316;6.092;2022-12-07T15:10:15;15.02;;;8.43;;
23952;SDS011;12163;49.316;6.092;2022-12-07T15:12:49;18.00;;;8.55;;
23952;SDS011;12163;49.316;6.092;2022-12-07T15:15:16;17.88;;;9.35;;
23952;SDS011;12163;49.316;6.092;2022-12-07T15:17:43;15.63;;;9.07;;
23952;SDS011;12163;49.316;6.092;2022-12-07T15:20:14;18.73;;;9.05;;
23952;SDS011;12163;49.316;6.092;2022-12-07T15:22:43;16.35;;;9.32;;
23952;SDS011;12163;49.316;6.092;2022-12-07T15:25:12;15.70;;;8.45;;
23952;SDS011;12163;49.316;6.092;2022-12-07T15:27:40;21.67;;;9.35;;
23952;SDS011;12163;49.316;6.092;2022-12-07T16:59:44;17.50;;;10.25;;
23952;SDS011;12163;49.316;6.092;2022-12-07T17:02:11;19.95;;;8.98;;
23952;SDS011;12163;49.316;6.092;2022-12-07T17:04:38;23.58;;;9.68;;
23952;SDS011;12163;49.316;6.092;2022-12-07T17:07:09;17.40;;;9.15;;
23952;SDS011;12163;49.316;6.092;2022-12-07T17:09:36;24.58;;;9.45;;
23952;SDS011;12163;49.316;6.092;2022-12-07T17:12:03;18.08;;;9.55;;
23952;SDS011;12163;49.316;6.092;2022-12-07T17:14:32;17.15;;;9.30;;
23952;SDS011;12163;49.316;6.092;2022-12-07T17:17:25;19.67;;;10.05;;
23952;SDS011;12163;49.316;6.092;2022-12-07T17:19:51;18.77;;;10.68;;
23952;SDS011;12163;49.316;6.092;2022-12-07T17:22:18;20.02;;;10.70;;
23952;SDS011;12163;49.316;6.092;2022-12-07T17:24:44;17.92;;;10.27;;
23952;SDS011;12163;49.316;6.092;2022-12-07T17:27:11;21.85;;;11.27;;
23952;SDS011;12163;49.316;6.092;2022-12-07T17:29:38;24.17;;;10.82;;
23952;SDS011;12163;49.316;6.092;2022-12-07T17:32:04;22.40;;;11.30;;
23952;SDS011;12163;49.316;6.092;2022-12-07T17:34:31;22.17;;;10.02;;
23952;SDS011;12163;49.316;6.092;2022-12-07T17:36:57;20.40;;;9.70;;
23952;SDS011;12163;49.316;6.092;2022-12-07T17:39:24;20.25;;;10.30;;
23952;SDS011;12163;49.316;6.092;2022-12-07T17:41:51;25.95;;;10.68;;
23952;SDS011;12163;49.316;6.092;2022-12-07T17:44:36;19.35;;;10.32;;
23952;SDS011;12163;49.316;6.092;2022-12-07T17:47:02;22.38;;;10.00;;
23952;SDS011;12163;49.316;6.092;2022-12-07T17:49:29;21.75;;;11.38;;
23952;SDS011;12163;49.316;6.092;2022-12-07T17:51:56;19.10;;;9.98;;
23952;SDS011;12163;49.316;6.092;2022-12-07T17:54:42;21.42;;;9.88;;
23952;SDS011;12163;49.316;6.092;2022-12-07T17:57:09;21.10;;;10.95;;
23952;SDS011;12163;49.316;6.092;2022-12-07T17:59:36;20.98;;;10.90;;
23952;SDS011;12163;49.316;6.092;2022-12-07T18:02:02;21.05;;;10.25;;
23952;SDS011;12163;49.316;6.092;2022-12-07T18:04:30;25.73;;;11.15;;
23952;SDS011;12163;49.316;6.092;2022-12-07T18:06:56;20.30;;;10.40;;
23952;SDS011;12163;49.316;6.092;2022-12-07T18:09:23;20.27;;;10.63;;
23952;SDS011;12163;49.316;6.092;2022-12-07T18:11:50;17.92;;;10.57;;
23952;SDS011;12163;49.316;6.092;2022-12-07T18:14:16;20.83;;;10.65;;
23952;SDS011;12163;49.316;6.092;2022-12-07T18:16:43;19.10;;;9.60;;
23952;SDS011;12163;49.316;6.092;2022-12-07T18:19:11;21.30;;;9.80;;
23952;SDS011;12163;49.316;6.092;2022-12-07T18:21:40;18.85;;;9.65;;
23952;SDS011;12163;49.316;6.092;2022-12-07T18:24:10;20.67;;;10.38;;
23952;SDS011;12163;49.316;6.092;2022-12-07T18:26:39;20.73;;;10.07;;
23952;SDS011;12163;49.316;6.092;2022-12-07T18:29:07;19.63;;;9.98;;
23952;SDS011;12163;49.316;6.092;2022-12-07T18:31:35;18.15;;;9.82;;
23952;SDS011;12163;49.316;6.092;2022-12-07T18:34:03;18.70;;;9.05;;
23952;SDS011;12163;49.316;6.092;2022-12-07T18:36:34;22.45;;;9.45;;
23952;SDS011;12163;49.316;6.092;2022-12-07T18:39:02;18.25;;;9.10;;
23952;SDS011;12163;49.316;6.092;2022-12-07T18:41:32;21.00;;;9.15;;
23952;SDS011;12163;49.316;6.092;2022-12-07T18:44:02;22.67;;;9.77;;
23952;SDS011;12163;49.316;6.092;2022-12-07T18:46:29;17.77;;;9.70;;
23952;SDS011;12163;49.316;6.092;2022-12-07T18:48:56;18.02;;;10.02;;
23952;SDS011;12163;49.316;6.092;2022-12-07T18:51:23;17.50;;;9.43;;
23952;SDS011;12163;49.316;6.092;2022-12-07T18:53:57;22.52;;;9.40;;
23952;SDS011;12163;49.316;6.092;2022-12-07T18:56:25;19.50;;;10.35;;
23952;SDS011;12163;49.316;6.092;2022-12-07T18:58:53;18.15;;;9.73;;